Time;durP1;ratioP1;P1;durP2;ratioP2;P2;SDS_P1;SDS_P2;PMS_P1;PMS_P2;Temp;Humidity;BMP_temperature;BMP_pressure;BME280_temperature;BME280_humidity;BME280_pressure;Samples;Min_cycle;Max_cycle;Signal;HPM_P1;HPM_P2
2022/10/20 00:03:02;;;;;;;12.90;6.50;;;;;;;6.19;100.00;102127.41;12896256;22;20011;-90
2022/10/20 00:08:03;;;;;;;16.08;6.82;;;;;;;5.53;100.00;102028.25;12897165;22;20023;-90
2022/10/20 00:13:03;;;;;;;10.27;5.75;;;;;;;4.64;100.00;101928.25;12901398;22;20016;-90
2022/10/20 00:18:04;;;;;;;14.32;6.07;;;;;;;4.74;100.00;101933.44;12876171;22;20452;-91
2022/10/20 00:23:05;;;;;;;15.60;7.47;;;;;;;5.20;100.00;101965.91;12899496;22;20018;-90
2022/10/20 00:28:05;;;;;;;12.48;6.93;;;;;;;4.62;100.00;101894.88;12899864;22;20014;-90
2022/10/20 00:33:06;;;;;;;12.52;5.75;;;;;;;5.10;100.00;101921.69;12904202;22;20018;-91
2022/10/20 00:38:06;;;;;;;14.50;6.07;;;;;;;4.64;100.00;101865.53;12900259;22;20137;-91
2022/10/20 00:43:11;;;;;;;19.17;7.95;;;;;;;4.05;100.00;101713.78;12902487;22;20061;-90
2022/10/20 00:48:13;;;;;;;12.02;6.60;;;;;;;5.34;100.00;101943.16;12901180;22;20015;-91
2022/10/20 00:53:15;;;;;;;17.77;7.32;;;;;;;4.49;100.00;101818.34;12901581;22;20008;-90
2022/10/20 00:58:16;;;;;;;13.82;6.72;;;;;;;5.78;100.00;102009.59;12899414;22;20014;-90
2022/10/20 01:03:23;;;;;;;10.73;6.63;;;;;;;5.22;100.00;101892.84;12900437;22;20486;-90
2022/10/20 01:08:24;;;;;;;11.32;6.30;;;;;;;5.42;100.00;101918.47;12898310;22;20061;-91
2022/10/20 01:13:36;;;;;;;10.73;6.05;;;;;;;5.02;100.00;101885.28;12898440;22;20050;-91
2022/10/20 01:19:22;;;;;;;9.68;5.65;;;;;;;5.87;100.00;102016.66;12900604;22;20374;-90
2022/10/20 01:24:43;;;;;;;15.90;7.15;;;;;;;4.74;100.00;101854.31;12923696;22;20024;-91
2022/10/20 01:29:53;;;;;;;9.38;6.30;;;;;;;5.38;100.00;101911.72;12901704;22;20022;-90
2022/10/20 01:35:14;;;;;;;11.73;6.32;;;;;;;6.00;100.00;102024.16;12898242;22;20090;-90
2022/10/20 01:40:35;;;;;;;8.90;6.50;;;;;;;5.92;100.00;102000.50;12923497;22;20030;-91
2022/10/20 01:45:36;;;;;;;10.45;6.97;;;;;;;5.19;100.00;101939.66;12907882;22;20508;-90
2022/10/20 01:50:37;;;;;;;14.00;8.20;;;;;;;4.96;100.00;101853.31;12897218;22;20094;-90
2022/10/20 01:55:37;;;;;;;16.92;7.50;;;;;;;5.82;100.00;101983.59;12896741;22;20053;-90
2022/10/20 02:00:38;;;;;;;14.95;6.80;;;;;;;5.44;100.00;101942.88;12896816;22;20004;-91
2022/10/20 02:06:11;;;;;;;12.20;6.45;;;;;;;5.74;100.00;101964.59;12898089;22;20072;-91
2022/10/20 02:11:21;;;;;;;13.00;6.40;;;;;;;4.73;100.00;101792.59;12946880;22;20023;-90
2022/10/20 02:16:36;;;;;;;15.07;7.38;;;;;;;3.82;100.00;101646.69;12900840;22;20035;-91
2022/10/20 02:21:37;;;;;;;13.57;6.90;;;;;;;5.58;100.00;101949.28;12926691;22;20035;-90
2022/10/20 02:26:37;;;;;;;8.32;5.72;;;;;;;4.72;100.00;101816.31;12896068;22;20456;-90
2022/10/20 02:31:38;;;;;;;13.88;7.03;;;;;;;5.05;100.00;101867.69;12896620;22;20065;-90
2022/10/20 02:36:40;;;;;;;9.32;5.90;;;;;;;4.37;100.00;101758.00;12895745;22;20011;-90
2022/10/20 02:41:40;;;;;;;12.05;7.10;;;;;;;4.07;100.00;101728.06;12896157;22;20042;-91
2022/10/20 02:46:41;;;;;;;15.18;7.75;;;;;;;3.87;100.00;101667.06;12895487;22;20130;-90
2022/10/20 02:51:41;;;;;;;15.02;7.97;;;;;;;4.49;100.00;101813.72;12896724;22;20057;-91
2022/10/20 02:56:42;;;;;;;15.23;7.40;;;;;;;3.53;100.00;101630.34;12896778;22;20019;-90
2022/10/20 03:01:42;;;;;;;18.10;8.18;;;;;;;4.40;100.00;101772.09;12896046;22;20010;-90
2022/10/20 03:06:43;;;;;;;20.33;7.75;;;;;;;4.62;100.00;101819.34;12896428;22;20015;-91
2022/10/20 03:11:44;;;;;;;13.73;7.75;;;;;;;4.24;100.00;101735.00;12896147;22;20015;-90
2022/10/20 03:16:44;;;;;;;13.93;8.60;;;;;;;4.10;100.00;101705.91;12895690;22;20012;-91
2022/10/20 03:21:45;;;;;;;17.73;9.07;;;;;;;3.85;100.00;101675.41;12896572;22;20338;-91
2022/10/20 03:26:46;;;;;;;14.68;8.23;;;;;;;4.47;100.00;101796.72;12921277;22;20504;-91
2022/10/20 03:31:46;;;;;;;14.90;8.18;;;;;;;4.17;100.00;101714.97;12897199;22;20007;-91
2022/10/20 03:36:47;;;;;;;14.75;9.15;;;;;;;4.11;100.00;101732.09;12895052;22;20026;-90
2022/10/20 03:41:47;;;;;;;15.55;8.57;;;;;;;3.96;100.00;101687.69;12897331;22;20295;-90
2022/10/20 03:46:48;;;;;;;15.38;10.35;;;;;;;4.81;100.00;101795.19;12899214;22;20061;-91
2022/10/20 03:51:48;;;;;;;17.42;11.10;;;;;;;4.40;100.00;101761.19;12901442;22;20008;-91
2022/10/20 03:56:49;;;;;;;17.38;11.13;;;;;;;3.35;100.00;101566.28;12901050;22;20024;-90
2022/10/20 04:01:49;;;;;;;25.02;11.43;;;;;;;4.55;100.00;101758.44;12900496;22;20008;-91
2022/10/20 04:06:50;;;;;;;21.30;12.43;;;;;;;3.67;100.00;101569.59;12900921;22;20516;-92
2022/10/20 04:11:51;;;;;;;21.25;11.82;;;;;;;4.89;100.00;101784.16;12901295;22;20024;-91
2022/10/20 04:16:51;;;;;;;22.17;11.82;;;;;;;3.27;100.00;101497.50;12925315;22;20011;-91
2022/10/20 04:21:52;;;;;;;18.88;12.05;;;;;;;4.41;100.00;101700.16;12899853;22;20035;-91
2022/10/20 04:26:52;;;;;;;21.83;11.07;;;;;;;4.72;100.00;101759.03;12900270;22;20030;-90
2022/10/20 04:31:53;;;;;;;25.95;13.45;;;;;;;3.63;100.00;101551.94;12899291;22;20015;-90
2022/10/20 04:36:53;;;;;;;27.13;13.10;;;;;;;4.52;100.00;101687.91;12900676;22;20004;-90
2022/10/20 04:41:54;;;;;;;21.02;12.23;;;;;;;3.17;100.00;101462.44;12901315;22;20312;-90
2022/10/20 04:46:54;;;;;;;22.27;11.77;;;;;;;3.36;100.00;101474.56;12901083;22;20064;-91
2022/10/20 04:51:55;;;;;;;17.98;11.68;;;;;;;4.19;100.00;101603.88;12900163;22;20031;-91
2022/10/20 04:56:55;;;;;;;19.55;13.02;;;;;;;3.78;100.00;101560.94;12900433;22;20016;-91
2022/10/20 05:01:56;;;;;;;24.27;12.35;;;;;;;3.93;100.00;101551.88;12900699;22;20003;-90
2022/10/20 05:06:56;;;;;;;23.20;12.57;;;;;;;3.77;100.00;101542.91;12904399;22;20023;-90
2022/10/20 05:11:57;;;;;;;23.77;13.35;;;;;;;4.99;100.00;101741.03;12899163;22;20026;-91
2022/10/20 05:16:58;;;;;;;19.90;13.02;;;;;;;4.51;100.00;101685.38;12931049;22;20442;-91
2022/10/20 05:21:58;;;;;;;20.80;12.90;;;;;;;4.66;100.00;101653.41;12898449;22;20019;-91
2022/10/20 05:26:59;;;;;;;20.60;13.05;;;;;;;4.38;100.00;101632.41;12926116;22;20473;-90
2022/10/20 05:31:59;;;;;;;26.25;15.10;;;;;;;3.07;100.00;101386.56;12901549;22;19996;-90
2022/10/20 05:37:00;;;;;;;25.08;13.85;;;;;;;4.25;100.00;101635.81;12898114;22;19996;-91
2022/10/20 05:42:00;;;;;;;22.40;12.68;;;;;;;3.22;100.00;101430.91;12897731;22;20004;-91
2022/10/20 05:47:01;;;;;;;22.90;13.25;;;;;;;4.38;100.00;101618.78;12898340;22;20011;-91
2022/10/20 05:52:01;;;;;;;23.50;14.05;;;;;;;4.01;100.00;101555.31;12896700;22;20418;-91
2022/10/20 05:57:02;;;;;;;23.30;14.70;;;;;;;3.83;100.00;101503.97;12898148;22;20000;-91
2022/10/20 06:02:03;;;;;;;28.30;16.23;;;;;;;3.10;100.00;101372.59;12898503;22;20019;-91
2022/10/20 06:07:08;;;;;;;24.80;15.77;;;;;;;4.90;100.00;101641.25;12895248;22;20430;-91
2022/10/20 06:12:09;;;;;;;28.23;14.40;;;;;;;4.93;100.00;101646.28;12903490;22;20022;-91
2022/10/20 06:17:10;;;;;;;28.55;16.50;;;;;;;4.51;100.00;101582.59;12897890;22;20008;-91
2022/10/20 06:22:10;;;;;;;36.03;17.08;;;;;;;3.68;100.00;101429.69;12896120;22;20006;-92
2022/10/20 06:27:11;;;;;;;28.40;15.50;;;;;;;4.44;100.00;101563.47;12896910;22;20023;-90
2022/10/20 06:32:11;;;;;;;23.17;15.73;;;;;;;3.68;100.00;101417.94;12897188;22;20092;-91
2022/10/20 06:37:12;;;;;;;25.90;15.85;;;;;;;4.42;100.00;101497.38;12895672;22;20045;-91
2022/10/20 06:42:12;;;;;;;25.08;16.02;;;;;;;3.46;100.00;101322.69;12896142;22;20038;-90
2022/10/20 06:47:13;;;;;;;25.23;15.10;;;;;;;3.89;100.00;101346.28;12896699;22;20054;-91
2022/10/20 06:52:13;;;;;;;22.15;14.15;;;;;;;4.65;100.00;101474.44;12897128;22;20007;-90
2022/10/20 06:57:16;;;;;;;21.65;14.15;;;;;;;4.21;100.00;101381.03;12894865;22;20012;-90
2022/10/20 07:02:17;;;;;;;21.27;13.10;;;;;;;4.14;100.00;101363.81;12869050;22;20000;-92
2022/10/20 07:07:17;;;;;;;23.55;13.23;;;;;;;5.64;100.00;101571.50;12866088;22;20369;-93
2022/10/20 07:12:18;;;;;;;20.92;12.27;;;;;;;3.86;100.00;101294.91;12898332;22;20103;-93
2022/10/20 07:17:19;;;;;;;20.52;12.32;;;;;;;5.86;100.00;101614.03;12919069;22;20014;-93
2022/10/20 07:22:19;;;;;;;21.17;11.65;;;;;;;4.79;100.00;101396.25;12885991;22;20004;-90
2022/10/20 07:27:20;;;;;;;23.95;13.02;;;;;;;4.84;100.00;101386.41;12895695;22;20357;-91
2022/10/20 07:32:20;;;;;;;19.63;11.80;;;;;;;4.45;100.00;101322.47;12892160;22;20330;-91
2022/10/20 07:37:21;;;;;;;21.75;12.05;;;;;;;4.87;100.00;101329.78;12891960;22;20400;-93
2022/10/20 07:42:21;;;;;;;18.88;10.38;;;;;;;5.22;100.00;101349.56;12915043;22;20003;-92
2022/10/20 07:47:22;;;;;;;16.27;10.13;;;;;;;6.70;100.00;101597.38;12890273;22;20046;-93
2022/10/20 07:52:22;;;;;;;16.27;10.65;;;;;;;6.78;100.00;101584.34;12891251;22;20035;-93
2022/10/20 07:57:23;;;;;;;21.52;10.35;;;;;;;5.69;100.00;101377.78;12891735;22;20015;-93
2022/10/20 08:02:23;;;;;;;18.88;10.25;;;;;;;6.45;100.00;101470.31;12890809;22;20010;-92
2022/10/20 08:07:24;;;;;;;17.33;11.57;;;;;;;5.98;100.00;101386.66;12889029;22;20023;-90
2022/10/20 08:12:27;;;;;;;15.18;9.80;;;;;;;5.41;100.00;101296.88;12876739;22;20457;-95
2022/10/20 08:17:27;;;;;;;18.33;9.38;;;;;;;5.67;100.00;101278.81;12869233;22;20430;-93
2022/10/20 08:22:28;;;;;;;15.13;9.57;;;;;;;6.18;100.00;101379.25;12875749;22;20008;-93
2022/10/20 08:27:31;;;;;;;15.07;10.02;;;;;;;5.90;100.00;101318.50;12902382;22;20434;-95
2022/10/20 08:32:32;;;;;;;14.77;9.63;;;;;;;6.82;100.00;101434.22;12895315;22;20003;-94
2022/10/20 08:37:32;;;;;;;12.30;9.05;;;;;;;6.19;100.00;101251.59;12885144;22;20024;-93
2022/10/20 08:42:36;;;;;;;20.23;8.93;;;;;;;7.38;100.00;101400.69;12883731;22;20022;-95
2022/10/20 08:47:38;;;;;;;12.02;8.82;;;;;;;7.12;100.00;101305.00;12894360;22;20027;-92
2022/10/20 08:52:40;;;;;;;14.02;8.60;;;;;;;6.78;100.00;101241.41;12892240;22;20023;-93
2022/10/20 08:57:42;;;;;;;11.07;7.50;;;;;;;7.12;100.00;101297.63;12906734;22;20026;-94
2022/10/20 09:02:44;;;;;;;12.30;8.13;;;;;;;7.46;100.00;101290.84;12892376;22;20015;-94
2022/10/20 09:07:47;;;;;;;21.35;10.07;;;;;;;7.62;100.00;101259.28;12892826;22;20015;-94
2022/10/20 09:12:47;;;;;;;12.05;8.25;;;;;;;7.42;100.00;101207.44;12894501;22;20023;-93
2022/10/20 09:17:59;;;;;;;12.00;8.13;;;;;;;7.93;100.00;101316.97;12892832;22;20018;-93
2022/10/20 09:23:00;;;;;;;12.82;7.38;;;;;;;7.67;100.00;101245.75;12899599;22;20008;-93
2022/10/20 09:28:00;;;;;;;11.65;7.32;;;;;;;7.72;100.00;101214.91;12878842;22;20083;-93
2022/10/20 09:33:18;;;;;;;12.77;7.63;;;;;;;8.14;100.00;101195.88;12866316;22;20011;-92
2022/10/20 09:38:22;;;;;;;11.75;7.75;;;;;;;8.23;100.00;101180.78;12903173;22;20330;-93
2022/10/20 09:43:23;;;;;;;11.63;7.60;;;;;;;8.96;100.00;101247.53;12902999;22;20000;-93
2022/10/20 09:48:46;;;;;;;11.80;6.90;;;;;;;9.07;100.00;101193.72;12925663;22;20019;-94
2022/10/20 09:53:53;;;;;;;8.43;6.60;;;;;;;10.22;100.00;101331.69;12898145;22;20011;-92
2022/10/20 09:58:54;;;;;;;19.45;6.95;;;;;;;9.52;100.00;101195.91;12946810;22;20007;-93
2022/10/20 10:03:58;;;;;;;7.25;6.18;;;;;;;9.78;100.00;101243.22;12894379;22;20049;-93
2022/10/20 10:08:59;;;;;;;11.65;6.15;;;;;;;9.66;100.00;101197.31;12895395;22;20012;-91
2022/10/20 10:14:00;;;;;;;12.85;7.57;;;;;;;9.32;100.00;101116.56;12875337;22;20019;-92
2022/10/20 10:19:02;;;;;;;10.35;5.88;;;;;;;10.02;100.00;101224.78;12861840;22;20030;-90
2022/10/20 10:24:03;;;;;;;8.85;6.43;;;;;;;10.04;100.00;101167.59;12893385;22;20069;-93
2022/10/20 10:29:03;;;;;;;7.85;5.95;;;;;;;10.11;100.00;101135.31;12874331;22;20039;-91
2022/10/20 10:34:13;;;;;;;6.95;6.10;;;;;;;11.24;100.00;101308.16;12870437;22;20011;-93
2022/10/20 10:39:14;;;;;;;7.32;5.85;;;;;;;10.01;100.00;101093.84;12945087;22;20054;-93
2022/10/20 10:44:32;;;;;;;11.38;6.07;;;;;;;10.05;100.00;101145.34;12892411;22;20004;-93
2022/10/20 10:49:56;;;;;;;8.20;6.50;;;;;;;11.07;100.00;101223.53;12904394;22;20150;-93
2022/10/20 10:55:33;;;;;;;7.60;6.05;;;;;;;11.56;100.00;101288.31;12916121;22;20047;-92
2022/10/20 11:00:48;;;;;;;10.80;6.13;;;;;;;11.45;100.00;101216.47;12744818;22;20031;-93
2022/10/20 11:06:00;;;;;;;10.32;6.40;;;;;;;11.98;100.00;101296.16;12875073;22;20085;-93
2022/10/20 11:11:19;;;;;;;9.43;6.10;;;;;;;12.44;100.00;101266.41;12880558;22;20035;-94
2022/10/20 11:16:39;;;;;;;7.90;6.18;;;;;;;11.56;100.00;101089.78;12820157;22;20008;-93
2022/10/20 11:21:58;;;;;;;6.82;5.38;;;;;;;12.61;100.00;101256.13;12728476;22;20018;-94
2022/10/20 11:27:08;;;;;;;10.82;6.70;;;;;;;12.18;100.00;101190.75;12771704;22;20453;-92
2022/10/20 11:32:33;;;;;;;8.75;6.53;;;;;;;12.31;100.00;101179.28;12900497;22;20011;-93
2022/10/20 11:37:40;;;;;;;8.13;6.68;;;;;;;11.83;100.00;101093.44;12935425;22;20003;-93
2022/10/20 11:42:49;;;;;;;11.48;7.07;;;;;;;11.62;100.00;101050.16;12891222;22;20464;-93
2022/10/20 11:47:57;;;;;;;8.43;6.93;;;;;;;11.90;100.00;101102.34;12920081;22;20027;-93
2022/10/20 11:53:18;;;;;;;7.88;6.43;;;;;;;12.09;100.00;101100.13;12875652;22;20011;-93
2022/10/20 11:58:53;;;;;;;10.45;6.53;;;;;;;12.15;100.00;101086.34;12915451;22;20011;-92
2022/10/20 12:04:13;;;;;;;9.35;6.28;;;;;;;12.80;100.00;101153.56;12939957;22;20008;-92
2022/10/20 12:09:26;;;;;;;13.43;7.57;;;;;;;13.29;100.00;101219.78;12920201;22;20019;-93
2022/10/20 12:14:35;;;;;;;9.43;7.20;;;;;;;12.35;100.00;101091.25;12914317;22;20438;-92
2022/10/20 12:19:35;;;;;;;10.13;7.63;;;;;;;12.03;100.00;101051.47;12918948;22;20016;-92
2022/10/20 12:24:42;;;;;;;8.88;6.60;;;;;;;13.18;100.00;101216.06;12877971;22;20027;-93
2022/10/20 12:29:42;;;;;;;8.57;7.35;;;;;;;12.49;100.00;101128.41;12916517;22;20011;-93
2022/10/20 12:34:43;;;;;;;11.10;7.10;;;;;;;12.21;100.00;101096.34;12943961;22;20004;-93
2022/10/20 12:39:46;;;;;;;10.35;7.15;;;;;;;11.68;100.00;101005.00;12891307;22;20300;-94
2022/10/20 12:44:47;;;;;;;12.68;7.45;;;;;;;11.63;100.00;101057.31;12893185;22;20042;-92
2022/10/20 12:49:54;;;;;;;13.13;7.68;;;;;;;11.63;100.00;101082.13;12893347;22;20022;-93
2022/10/20 12:55:12;;;;;;;10.18;8.07;;;;;;;11.40;100.00;101097.81;12919536;22;20024;-93
2022/10/20 13:00:20;;;;;;;11.05;7.40;;;;;;;11.97;100.00;101167.53;12896193;22;19999;-92
2022/10/20 13:05:36;;;;;;;11.50;7.72;;;;;;;11.21;100.00;101061.47;12943030;22;20018;-93
2022/10/20 13:10:37;;;;;;;11.90;7.88;;;;;;;11.05;100.00;101015.50;12940471;22;20023;-93
2022/10/20 13:15:58;;;;;;;9.85;7.95;;;;;;;11.64;100.00;101119.66;12917539;22;20008;-93
2022/10/20 13:21:07;;;;;;;14.35;9.40;;;;;;;11.98;100.00;101205.09;12918704;22;20010;-93
2022/10/20 13:26:20;;;;;;;15.25;10.65;;;;;;;11.00;100.00;101074.09;12945049;22;20035;-93
2022/10/20 13:31:38;;;;;;;15.48;10.60;;;;;;;11.01;100.00;101105.25;12893691;22;20389;-92
2022/10/20 13:36:57;;;;;;;15.68;11.15;;;;;;;11.47;100.00;101200.50;12922073;22;20026;-92
2022/10/20 13:42:20;;;;;;;19.05;12.50;;;;;;;10.79;100.00;101124.44;12944701;22;20011;-93
2022/10/20 13:47:41;;;;;;;21.50;13.48;;;;;;;11.31;100.00;101193.06;12897805;22;20091;-92
2022/10/20 13:52:47;;;;;;;22.65;13.85;;;;;;;10.27;100.00;101096.00;12940632;22;20334;-88
2022/10/20 13:57:50;;;;;;;23.55;13.60;;;;;;;10.55;100.00;101127.34;12891023;22;20004;-93
2022/10/20 14:02:53;;;;;;;20.45;14.07;;;;;;;9.93;100.00;101033.72;12891923;22;20030;-87
2022/10/20 14:07:54;;;;;;;21.17;13.95;;;;;;;9.88;100.00;101027.03;12890410;22;20016;-87
2022/10/20 14:12:54;;;;;;;23.80;15.63;;;;;;;9.59;100.00;101006.09;12890177;22;20442;-88
2022/10/20 14:18:03;;;;;;;22.27;15.50;;;;;;;9.87;100.00;101025.34;12918480;22;20011;-94
2022/10/20 14:23:04;;;;;;;23.35;17.05;;;;;;;10.08;100.00;101092.59;12878085;22;20008;-87
2022/10/20 14:28:05;;;;;;;24.27;16.77;;;;;;;10.65;100.00;101184.50;12889500;22;20019;-92
2022/10/20 14:33:05;;;;;;;23.65;16.48;;;;;;;10.39;100.00;101095.94;12892503;22;20377;-87
2022/10/20 14:38:36;;;;;;;27.00;17.50;;;;;;;10.96;100.00;101196.09;12897863;22;20008;-87
2022/10/20 14:43:44;;;;;;;30.05;17.65;;;;;;;10.93;100.00;101164.34;12914797;22;20079;-90
2022/10/20 14:48:46;;;;;;;30.23;17.65;;;;;;;10.17;100.00;101082.03;12916961;22;20012;-89
2022/10/20 14:53:47;;;;;;;31.95;18.20;;;;;;;10.12;100.00;101048.91;12892944;22;20353;-91
2022/10/20 14:59:00;;;;;;;27.50;18.13;;;;;;;10.13;100.00;101036.84;12913266;22;20007;-92
2022/10/20 15:04:30;;;;;;;29.25;18.50;;;;;;;11.04;100.00;101162.59;12916743;22;20004;-90
2022/10/20 15:09:36;;;;;;;29.77;19.13;;;;;;;10.27;100.00;101024.44;12886393;22;20050;-86
2022/10/20 15:14:37;;;;;;;33.40;18.87;;;;;;;9.97;100.00;100991.72;12889042;22;20477;-85
2022/10/20 15:19:37;;;;;;;33.75;20.42;;;;;;;9.33;100.00;100909.44;12890095;22;20012;-86
2022/10/20 15:24:38;;;;;;;34.08;20.67;;;;;;;10.47;100.00;101064.44;12888265;22;20326;-93
2022/10/20 15:29:38;;;;;;;42.40;21.67;;;;;;;10.26;100.00;101022.75;12891966;22;20008;-94
2022/10/20 15:34:39;;;;;;;42.28;21.63;;;;;;;9.77;100.00;100970.16;12918575;22;20007;-94
2022/10/20 15:39:39;;;;;;;39.88;22.92;;;;;;;10.08;100.00;100987.22;12894244;22;20004;-94
2022/10/20 15:44:40;;;;;;;39.65;23.38;;;;;;;10.29;100.00;100983.78;12894519;22;20015;-85
2022/10/20 15:49:40;;;;;;;42.38;22.92;;;;;;;10.15;100.00;100938.41;12917852;22;20081;-85
2022/10/20 15:54:41;;;;;;;44.78;22.75;;;;;;;10.15;100.00;100938.41;12919778;22;20007;-92
2022/10/20 15:59:41;;;;;;;38.65;22.05;;;;;;;10.05;100.00;100914.28;12903547;22;20038;-92
2022/10/20 16:04:42;;;;;;;42.25;23.92;;;;;;;10.79;100.00;101003.25;12918867;22;20033;-90
2022/10/20 16:09:42;;;;;;;37.83;22.73;;;;;;;10.09;100.00;100889.88;12891775;22;20015;-86
2022/10/20 16:14:43;;;;;;;37.08;22.92;;;;;;;10.49;100.00;100979.69;12917025;22;20328;-87
2022/10/20 16:19:43;;;;;;;42.03;23.05;;;;;;;10.87;100.00;101011.94;12862569;22;20342;-94
2022/10/20 16:24:45;;;;;;;40.42;22.67;;;;;;;9.53;100.00;100826.53;12895315;22;20050;-93
2022/10/20 16:29:46;;;;;;;39.80;23.45;;;;;;;10.44;100.00;100982.38;12889980;22;20015;-86
2022/10/20 16:34:46;;;;;;;35.85;23.55;;;;;;;10.23;100.00;100956.38;12916213;22;20334;-86
2022/10/20 16:39:47;;;;;;;42.58;23.55;;;;;;;10.76;100.00;101031.31;12849942;22;20011;-87
2022/10/20 16:44:47;;;;;;;41.80;24.55;;;;;;;10.77;100.00;100988.91;12889150;22;20028;-85
2022/10/20 16:49:48;;;;;;;40.55;24.00;;;;;;;11.15;100.00;101067.97;12917719;22;20015;-90
2022/10/20 16:54:48;;;;;;;45.22;23.73;;;;;;;10.19;100.00;100928.56;12894379;22;20015;-93
2022/10/20 16:59:49;;;;;;;39.03;23.23;;;;;;;10.22;100.00;100908.78;12895329;22;19999;-93
2022/10/20 17:04:49;;;;;;;49.95;24.33;;;;;;;10.57;100.00;100948.16;12895580;22;20023;-91
2022/10/20 17:09:50;;;;;;;44.13;23.25;;;;;;;10.89;100.00;100998.75;12896279;22;20182;-93
2022/10/20 17:14:50;;;;;;;42.60;24.60;;;;;;;10.78;100.00;100996.09;12892575;22;20433;-86
2022/10/20 17:19:51;;;;;;;45.95;24.17;;;;;;;10.20;100.00;100896.38;12890627;22;20039;-89
2022/10/20 17:24:51;;;;;;;40.88;24.13;;;;;;;11.60;100.00;101088.19;12861795;22;20303;-91
2022/10/20 17:29:52;;;;;;;43.95;24.02;;;;;;;10.42;100.00;100935.00;12832105;22;20071;-92
2022/10/20 17:34:53;;;;;;;46.03;25.30;;;;;;;10.23;100.00;100891.19;12767512;22;20049;-90
2022/10/20 17:39:53;;;;;;;39.15;22.75;;;;;;;11.09;100.00;101014.72;12909721;22;20008;-92
2022/10/20 17:44:54;;;;;;;42.63;24.35;;;;;;;10.32;100.00;100899.06;12872003;22;20090;-92
2022/10/20 17:49:54;;;;;;;43.92;24.70;;;;;;;10.48;100.00;100926.56;12868557;22;20094;-92
2022/10/20 17:54:55;;;;;;;43.67;24.75;;;;;;;11.34;100.00;101064.94;12868522;22;20008;-91
2022/10/20 17:59:56;;;;;;;47.28;26.05;;;;;;;10.89;100.00;100997.91;12875869;22;20461;-92
2022/10/20 18:04:56;;;;;;;44.30;25.05;;;;;;;11.32;100.00;101045.88;12890236;22;20004;-91
2022/10/20 18:09:57;;;;;;;42.35;24.02;;;;;;;11.19;100.00;101014.03;12899763;22;20027;-92
2022/10/20 18:14:58;;;;;;;46.92;26.60;;;;;;;10.99;100.00;100976.00;12913854;22;20024;-91
2022/10/20 18:19:58;;;;;;;46.70;26.10;;;;;;;11.45;100.00;101048.28;12859270;22;20039;-93
2022/10/20 18:25:03;;;;;;;46.45;26.33;;;;;;;11.17;100.00;101012.63;12913653;22;20016;-91
2022/10/20 18:30:06;;;;;;;44.00;26.40;;;;;;;10.21;100.00;100832.84;12831758;22;20012;-91
2022/10/20 18:35:07;;;;;;;51.22;26.50;;;;;;;10.94;100.00;100978.69;12820572;22;20010;-90
2022/10/20 18:40:08;;;;;;;48.40;27.15;;;;;;;10.08;100.00;100838.69;12864022;22;20082;-93
2022/10/20 18:45:09;;;;;;;53.45;27.20;;;;;;;10.12;100.00;100828.84;12888337;22;20026;-91
2022/10/20 18:50:10;;;;;;;51.08;27.35;;;;;;;11.46;100.00;101030.63;12896720;22;20020;-86
2022/10/20 18:55:10;;;;;;;52.47;28.10;;;;;;;10.86;100.00;100935.06;12883634;22;20082;-85
2022/10/20 19:00:12;;;;;;;55.83;28.50;;;;;;;10.17;100.00;100859.19;12869074;22;20341;-87
2022/10/20 19:05:12;;;;;;;54.30;29.33;;;;;;;10.81;100.00;100946.00;12884744;22;20033;-85
2022/10/20 19:10:13;;;;;;;54.33;28.83;;;;;;;10.88;100.00;101008.09;12857998;22;20050;-86
2022/10/20 19:15:14;;;;;;;57.70;30.25;;;;;;;9.36;100.00;100759.72;12907987;22;20016;-86
2022/10/20 19:20:14;;;;;;;58.35;29.25;;;;;;;9.33;100.00;100776.72;12883237;22;20438;-86
2022/10/20 19:25:15;;;;;;;57.30;29.35;;;;;;;9.86;100.00;100877.09;12885491;22;20075;-86
2022/10/20 19:30:16;;;;;;;64.82;33.00;;;;;;;10.85;100.00;101051.81;12885317;22;20031;-86
2022/10/20 19:35:17;;;;;;;63.40;31.27;;;;;;;9.74;100.00;100871.69;12861178;22;20023;-90
2022/10/20 19:40:17;;;;;;;68.00;33.58;;;;;;;10.21;100.00;100959.41;12894730;22;20057;-90
2022/10/20 19:45:18;;;;;;;64.93;32.22;;;;;;;9.66;100.00;100883.09;12877428;22;20069;-88
2022/10/20 19:50:19;;;;;;;86.50;35.05;;;;;;;10.21;100.00;100964.91;12888469;22;20016;-88
2022/10/20 19:55:19;;;;;;;76.78;34.40;;;;;;;8.93;100.00;100762.03;12887386;22;20319;-88
2022/10/20 20:00:20;;;;;;;63.53;31.52;;;;;;;8.76;100.00;100734.50;12914518;22;20103;-93
2022/10/20 20:05:20;;;;;;;69.93;34.35;;;;;;;9.14;100.00;100806.34;12872671;22;20473;-89
2022/10/20 20:10:21;;;;;;;75.32;33.97;;;;;;;9.56;100.00;100891.16;12870965;22;20008;-91
2022/10/20 20:15:22;;;;;;;73.93;33.67;;;;;;;9.25;100.00;100879.59;12884464;22;20047;-88
2022/10/20 20:20:22;;;;;;;87.05;36.97;;;;;;;9.18;100.00;100843.22;12926288;22;20008;-93
2022/10/20 20:25:23;;;;;;;82.53;37.17;;;;;;;9.59;100.00;100926.38;12900366;22;20018;-93
2022/10/20 20:30:24;;;;;;;79.00;34.85;;;;;;;8.57;100.00;100736.63;12913848;22;20016;-94
2022/10/20 20:35:25;;;;;;;88.57;38.72;;;;;;;9.74;100.00;100898.38;12864350;22;20104;-87
2022/10/20 20:40:25;;;;;;;84.45;37.55;;;;;;;9.11;100.00;100831.53;12888499;22;20055;-88
2022/10/20 20:45:26;;;;;;;100.75;40.45;;;;;;;8.73;100.00;100742.41;12904717;22;20000;-87
2022/10/20 20:50:26;;;;;;;90.43;37.85;;;;;;;9.67;100.00;100937.84;12891272;22;20020;-88
2022/10/20 20:55:27;;;;;;;82.30;36.63;;;;;;;8.11;100.00;100682.72;12914237;22;20038;-88
2022/10/20 21:00:28;;;;;;;94.45;38.92;;;;;;;9.07;100.00;100899.84;12889411;22;20007;-87
2022/10/20 21:05:28;;;;;;;107.50;40.03;;;;;;;8.61;100.00;100797.34;12856169;22;20003;-87
2022/10/20 21:10:29;;;;;;;92.50;36.15;;;;;;;9.78;100.00;101015.84;12846495;22;20108;-88
2022/10/20 21:15:30;;;;;;;90.95;38.97;;;;;;;7.89;100.00;100697.88;12910475;22;20095;-88
2022/10/20 21:20:30;;;;;;;109.68;42.55;;;;;;;8.69;100.00;100821.66;12913955;22;20030;-88
2022/10/20 21:25:31;;;;;;;95.43;42.20;;;;;;;8.44;100.00;100794.53;12874345;22;20054;-87
2022/10/20 21:30:31;;;;;;;94.45;40.72;;;;;;;9.32;100.00;100951.72;12915386;22;20023;-88
2022/10/20 21:35:32;;;;;;;87.35;38.40;;;;;;;8.43;100.00;100795.59;12918580;22;20003;-89
2022/10/20 21:40:33;;;;;;;92.15;40.00;;;;;;;8.50;100.00;100807.28;12856985;22;20004;-89
2022/10/20 21:45:33;;;;;;;113.90;41.00;;;;;;;8.84;100.00;100900.75;12872918;22;20418;-88
2022/10/20 21:50:35;;;;;;;95.43;42.60;;;;;;;9.65;100.00;101021.63;12895282;22;20330;-89
2022/10/20 21:55:36;;;;;;;109.22;43.42;;;;;;;8.90;100.00;100872.31;12882895;22;20486;-91
2022/10/20 22:00:36;;;;;;;111.93;42.13;;;;;;;9.20;100.00;100978.38;12898473;22;20008;-94
2022/10/20 22:05:37;;;;;;;120.93;42.65;;;;;;;9.11;100.00;100931.25;12894601;22;20304;-93
2022/10/20 22:10:37;;;;;;;110.15;42.78;;;;;;;8.02;100.00;100772.72;12894192;22;20070;-93
2022/10/20 22:15:39;;;;;;;113.75;42.45;;;;;;;8.22;100.00;100795.13;12878931;22;20055;-93
2022/10/20 22:20:40;;;;;;;117.70;41.08;;;;;;;8.60;100.00;100850.53;12771540;22;20012;-93
2022/10/20 22:25:40;;;;;;;114.80;42.70;;;;;;;8.88;100.00;100915.66;12832068;22;20012;-93
2022/10/20 22:30:41;;;;;;;110.95;41.63;;;;;;;9.40;100.00;100989.78;12833528;22;20458;-93
2022/10/20 22:35:42;;;;;;;126.15;40.78;;;;;;;8.89;100.00;100882.47;12833789;22;20423;-93
2022/10/20 22:40:42;;;;;;;101.70;41.22;;;;;;;8.75;100.00;100896.72;12842747;22;20363;-90
2022/10/20 22:45:43;;;;;;;100.43;41.40;;;;;;;8.79;100.00;100886.94;12831071;22;20000;-92